Beaux Arts, Washington
Current Conditions -  °F | °C
As of 8:53 AM on Thursday 30 Oct 2014 (Local Time) from KBFI Reporting Station
Overcast Overcast  
Wind Chill: 57°   Ceiling: 9000
Heat Index: 57°   Visibility: 10mi
Dew Point: 52°   Wind: 3mph
Humidity: 83%   Direction: 260°W
Pressure: 29.87"   Gusts: NA
Location:  47.6186°N, 122.204°W
Report Text: KBFI 301553Z 26003KT 10SM SCT070 OVC090 14/11 A2987 RMK AO2 RAB1455E34 SLP113 P0000 T01390111
Loading
Personal Weather Stations






























Interactive Weather Map
Tropical Storm Tracking
New forecast layout! Learn more

10-Day Weather Forecast

Advertisements
Track Severe Weather on mobile